Terminal Aerodrome Forecast
Issued by NWS

Home | Current Version | Previous Version | Text Only | Print | Product List | Glossary On
Versions: 1 2 3 4 5 6 7 8 9 10 11 12 13 14 15
000
FTUS43 KGRR 242347
TAFJXN
TAF
KJXN 242347Z 2500/2524 23011KT P6SM -RA VCTS OVC050CB
     FM250500 34008KT 5SM -RA BR OVC020
     FM250700 03007KT 3SM -RA BR OVC015
     FM250800 05006KT 2SM -RA BR OVC008
     FM251200 09009KT 2SM -RA BR OVC004=

USA.gov is the U.S. government's official web portal to all federal, state and local government web resources and services.